Aviation Digital Data Service (ADDS)

Output produced by METARs form (2222 UTC 17 October 2017)
found at http://aviationweather.gov/adds/metars/
 
KPOU 171720Z 1718/1818 VRB03KT P6SM SKC 
     FM181000 00000KT 2SM BR SKC 
     FM181400 00000KT P6SM SKC